sensor_id;sensor_type;location;lat;lon;timestamp;temperature;humidity
9446;DHT22;4761;49.490;10.908;2023-08-08T00:00:06;22.10;54.40
9446;DHT22;4761;49.490;10.908;2023-08-08T00:02:34;22.10;54.40
9446;DHT22;4761;49.490;10.908;2023-08-08T00:04:59;22.10;54.40
9446;DHT22;4761;49.490;10.908;2023-08-08T00:07:25;22.10;54.40
9446;DHT22;4761;49.490;10.908;2023-08-08T00:09:51;22.10;54.40
9446;DHT22;4761;49.490;10.908;2023-08-08T00:12:16;22.10;54.40
9446;DHT22;4761;49.490;10.908;2023-08-08T00:14:42;22.10;54.40
9446;DHT22;4761;49.490;10.908;2023-08-08T00:17:07;22.10;54.40
9446;DHT22;4761;49.490;10.908;2023-08-08T00:19:33;22.10;54.50
9446;DHT22;4761;49.490;10.908;2023-08-08T00:21:59;22.10;54.50
9446;DHT22;4761;49.490;10.908;2023-08-08T00:24:25;22.10;54.40
9446;DHT22;4761;49.490;10.908;2023-08-08T00:26:50;22.10;54.40
9446;DHT22;4761;49.490;10.908;2023-08-08T00:29:16;22.20;54.50
9446;DHT22;4761;49.490;10.908;2023-08-08T00:31:41;22.10;54.40
9446;DHT22;4761;49.490;10.908;2023-08-08T00:34:06;22.10;54.30
9446;DHT22;4761;49.490;10.908;2023-08-08T00:36:32;22.10;54.30
9446;DHT22;4761;49.490;10.908;2023-08-08T00:38:57;22.10;54.30
9446;DHT22;4761;49.490;10.908;2023-08-08T00:41:23;22.20;54.40
9446;DHT22;4761;49.490;10.908;2023-08-08T00:43:49;22.10;54.30
9446;DHT22;4761;49.490;10.908;2023-08-08T00:46:18;22.10;54.30
9446;DHT22;4761;49.490;10.908;2023-08-08T00:48:46;22.10;54.30
9446;DHT22;4761;49.490;10.908;2023-08-08T00:51:11;22.10;54.30
9446;DHT22;4761;49.490;10.908;2023-08-08T00:53:37;22.10;54.30
9446;DHT22;4761;49.490;10.908;2023-08-08T00:56:02;22.10;54.20
9446;DHT22;4761;49.490;10.908;2023-08-08T00:58:28;22.10;54.20
9446;DHT22;4761;49.490;10.908;2023-08-08T01:00:55;22.10;54.30
9446;DHT22;4761;49.490;10.908;2023-08-08T01:03:22;22.10;54.20
9446;DHT22;4761;49.490;10.908;2023-08-08T01:05:54;22.10;54.20
9446;DHT22;4761;49.490;10.908;2023-08-08T01:08:26;22.10;54.20
9446;DHT22;4761;49.490;10.908;2023-08-08T01:10:52;22.10;54.20
9446;DHT22;4761;49.490;10.908;2023-08-08T01:13:22;22.10;54.20
9446;DHT22;4761;49.490;10.908;2023-08-08T01:15:48;22.10;54.20
9446;DHT22;4761;49.490;10.908;2023-08-08T01:18:15;22.10;54.20
9446;DHT22;4761;49.490;10.908;2023-08-08T01:20:42;22.10;54.20
9446;DHT22;4761;49.490;10.908;2023-08-08T01:23:13;22.10;54.20
9446;DHT22;4761;49.490;10.908;2023-08-08T01:25:40;22.10;54.20
9446;DHT22;4761;49.490;10.908;2023-08-08T01:28:07;22.10;54.20
9446;DHT22;4761;49.490;10.908;2023-08-08T01:30:32;22.10;54.20
9446;DHT22;4761;49.490;10.908;2023-08-08T01:32:58;22.10;54.20
9446;DHT22;4761;49.490;10.908;2023-08-08T01:35:26;22.10;54.20
9446;DHT22;4761;49.490;10.908;2023-08-08T01:38:12;22.10;54.20
9446;DHT22;4761;49.490;10.908;2023-08-08T01:40:40;22.10;54.20
9446;DHT22;4761;49.490;10.908;2023-08-08T01:43:08;22.10;54.10
9446;DHT22;4761;49.490;10.908;2023-08-08T01:45:33;22.10;54.10
9446;DHT22;4761;49.490;10.908;2023-08-08T01:47:59;22.10;54.10
9446;DHT22;4761;49.490;10.908;2023-08-08T01:50:24;22.10;54.10
9446;DHT22;4761;49.490;10.908;2023-08-08T01:52:50;22.10;54.10
9446;DHT22;4761;49.490;10.908;2023-08-08T01:55:16;22.10;54.20
9446;DHT22;4761;49.490;10.908;2023-08-08T01:57:42;22.10;54.20
9446;DHT22;4761;49.490;10.908;2023-08-08T02:00:07;22.10;54.20
9446;DHT22;4761;49.490;10.908;2023-08-08T02:02:33;22.10;54.20
9446;DHT22;4761;49.490;10.908;2023-08-08T02:05:01;22.10;54.20
9446;DHT22;4761;49.490;10.908;2023-08-08T02:07:26;22.10;54.20
9446;DHT22;4761;49.490;10.908;2023-08-08T02:09:52;22.10;54.20
9446;DHT22;4761;49.490;10.908;2023-08-08T02:12:17;22.10;54.10
9446;DHT22;4761;49.490;10.908;2023-08-08T02:14:43;22.10;54.20
9446;DHT22;4761;49.490;10.908;2023-08-08T02:17:08;22.10;54.20
9446;DHT22;4761;49.490;10.908;2023-08-08T02:19:34;22.10;54.10
9446;DHT22;4761;49.490;10.908;2023-08-08T02:21:59;22.10;54.20
9446;DHT22;4761;49.490;10.908;2023-08-08T02:24:25;22.10;54.20
9446;DHT22;4761;49.490;10.908;2023-08-08T02:26:50;22.10;54.20
9446;DHT22;4761;49.490;10.908;2023-08-08T02:29:16;22.10;54.20
9446;DHT22;4761;49.490;10.908;2023-08-08T02:31:41;22.10;54.20
9446;DHT22;4761;49.490;10.908;2023-08-08T02:34:07;22.10;54.20
9446;DHT22;4761;49.490;10.908;2023-08-08T02:36:32;22.10;54.20
9446;DHT22;4761;49.490;10.908;2023-08-08T02:38:58;22.10;54.20
9446;DHT22;4761;49.490;10.908;2023-08-08T02:41:24;22.10;54.20
9446;DHT22;4761;49.490;10.908;2023-08-08T02:43:49;22.10;54.10
9446;DHT22;4761;49.490;10.908;2023-08-08T02:46:15;22.10;54.10
9446;DHT22;4761;49.490;10.908;2023-08-08T02:48:40;22.10;54.10
9446;DHT22;4761;49.490;10.908;2023-08-08T02:51:06;22.10;54.10
9446;DHT22;4761;49.490;10.908;2023-08-08T02:53:31;22.10;54.20
9446;DHT22;4761;49.490;10.908;2023-08-08T02:55:57;22.10;54.20
9446;DHT22;4761;49.490;10.908;2023-08-08T02:58:22;22.10;54.20
9446;DHT22;4761;49.490;10.908;2023-08-08T03:00:48;22.10;54.20
9446;DHT22;4761;49.490;10.908;2023-08-08T03:03:13;22.10;54.30
9446;DHT22;4761;49.490;10.908;2023-08-08T03:05:39;22.10;54.40
9446;DHT22;4761;49.490;10.908;2023-08-08T03:08:05;22.10;54.50
9446;DHT22;4761;49.490;10.908;2023-08-08T03:10:31;22.10;54.50
9446;DHT22;4761;49.490;10.908;2023-08-08T03:12:56;22.00;54.50
9446;DHT22;4761;49.490;10.908;2023-08-08T03:15:22;22.10;54.60
9446;DHT22;4761;49.490;10.908;2023-08-08T03:17:48;22.10;54.60
9446;DHT22;4761;49.490;10.908;2023-08-08T03:20:13;22.10;54.60
9446;DHT22;4761;49.490;10.908;2023-08-08T03:22:39;22.10;54.60
9446;DHT22;4761;49.490;10.908;2023-08-08T03:25:05;22.10;54.60
9446;DHT22;4761;49.490;10.908;2023-08-08T03:27:31;22.10;54.70
9446;DHT22;4761;49.490;10.908;2023-08-08T03:29:56;22.10;54.70
9446;DHT22;4761;49.490;10.908;2023-08-08T03:32:22;22.10;54.70
9446;DHT22;4761;49.490;10.908;2023-08-08T03:34:48;22.10;54.70
9446;DHT22;4761;49.490;10.908;2023-08-08T03:37:13;22.10;54.70
9446;DHT22;4761;49.490;10.908;2023-08-08T03:39:39;22.10;54.80
9446;DHT22;4761;49.490;10.908;2023-08-08T03:42:05;22.10;54.80
9446;DHT22;4761;49.490;10.908;2023-08-08T03:44:30;22.00;54.70
9446;DHT22;4761;49.490;10.908;2023-08-08T03:46:56;22.00;54.70
9446;DHT22;4761;49.490;10.908;2023-08-08T03:49:21;22.00;54.70
9446;DHT22;4761;49.490;10.908;2023-08-08T03:51:47;22.00;54.70
9446;DHT22;4761;49.490;10.908;2023-08-08T03:54:14;22.00;54.70
9446;DHT22;4761;49.490;10.908;2023-08-08T03:56:40;22.00;54.70
9446;DHT22;4761;49.490;10.908;2023-08-08T03:59:06;22.00;54.80
9446;DHT22;4761;49.490;10.908;2023-08-08T04:01:31;22.00;54.70
9446;DHT22;4761;49.490;10.908;2023-08-08T04:03:57;22.00;54.70
9446;DHT22;4761;49.490;10.908;2023-08-08T04:06:23;22.00;54.70
9446;DHT22;4761;49.490;10.908;2023-08-08T04:08:48;22.00;54.70
9446;DHT22;4761;49.490;10.908;2023-08-08T04:11:14;22.00;54.80
9446;DHT22;4761;49.490;10.908;2023-08-08T04:13:39;22.00;54.70
9446;DHT22;4761;49.490;10.908;2023-08-08T04:16:05;22.00;54.70
9446;DHT22;4761;49.490;10.908;2023-08-08T04:18:30;22.00;54.70
9446;DHT22;4761;49.490;10.908;2023-08-08T04:20:56;22.00;54.70
9446;DHT22;4761;49.490;10.908;2023-08-08T04:23:21;22.00;54.80
9446;DHT22;4761;49.490;10.908;2023-08-08T04:25:51;22.00;54.80
9446;DHT22;4761;49.490;10.908;2023-08-08T04:28:16;22.00;54.70
9446;DHT22;4761;49.490;10.908;2023-08-08T04:30:42;21.90;54.70
9446;DHT22;4761;49.490;10.908;2023-08-08T04:33:07;21.90;54.70
9446;DHT22;4761;49.490;10.908;2023-08-08T04:35:33;21.90;54.70
9446;DHT22;4761;49.490;10.908;2023-08-08T04:37:58;22.00;54.70
9446;DHT22;4761;49.490;10.908;2023-08-08T04:40:24;22.00;54.70
9446;DHT22;4761;49.490;10.908;2023-08-08T04:42:49;21.90;54.60
9446;DHT22;4761;49.490;10.908;2023-08-08T04:45:15;22.00;54.60
9446;DHT22;4761;49.490;10.908;2023-08-08T04:47:40;22.00;54.60
9446;DHT22;4761;49.490;10.908;2023-08-08T04:50:06;21.90;54.60
9446;DHT22;4761;49.490;10.908;2023-08-08T04:52:32;21.90;54.60
9446;DHT22;4761;49.490;10.908;2023-08-08T04:54:57;21.90;54.50
9446;DHT22;4761;49.490;10.908;2023-08-08T04:57:23;21.90;54.60
9446;DHT22;4761;49.490;10.908;2023-08-08T04:59:48;21.90;54.50
9446;DHT22;4761;49.490;10.908;2023-08-08T05:02:14;21.90;54.50
9446;DHT22;4761;49.490;10.908;2023-08-08T05:04:40;21.90;54.50
9446;DHT22;4761;49.490;10.908;2023-08-08T05:07:05;21.90;54.40
9446;DHT22;4761;49.490;10.908;2023-08-08T05:09:31;21.90;54.40
9446;DHT22;4761;49.490;10.908;2023-08-08T05:11:57;21.90;54.40
9446;DHT22;4761;49.490;10.908;2023-08-08T05:14:22;22.00;54.50
9446;DHT22;4761;49.490;10.908;2023-08-08T05:16:48;21.90;54.40
9446;DHT22;4761;49.490;10.908;2023-08-08T05:19:13;21.90;54.40
9446;DHT22;4761;49.490;10.908;2023-08-08T05:21:39;22.00;54.50
9446;DHT22;4761;49.490;10.908;2023-08-08T05:24:04;22.00;54.40
9446;DHT22;4761;49.490;10.908;2023-08-08T05:26:30;21.90;54.40
9446;DHT22;4761;49.490;10.908;2023-08-08T05:28:55;22.00;54.50
9446;DHT22;4761;49.490;10.908;2023-08-08T05:31:21;22.00;54.40
9446;DHT22;4761;49.490;10.908;2023-08-08T05:33:48;22.00;54.40
9446;DHT22;4761;49.490;10.908;2023-08-08T05:36:14;22.00;54.40
9446;DHT22;4761;49.490;10.908;2023-08-08T05:38:39;22.00;54.40
9446;DHT22;4761;49.490;10.908;2023-08-08T05:41:06;22.00;55.00
9446;DHT22;4761;49.490;10.908;2023-08-08T05:43:31;22.00;54.40
9446;DHT22;4761;49.490;10.908;2023-08-08T05:45:57;22.00;54.40
9446;DHT22;4761;49.490;10.908;2023-08-08T05:48:22;22.00;54.30
9446;DHT22;4761;49.490;10.908;2023-08-08T05:50:48;22.10;54.40
9446;DHT22;4761;49.490;10.908;2023-08-08T05:53:13;22.10;54.50
9446;DHT22;4761;49.490;10.908;2023-08-08T05:55:41;22.10;54.50
9446;DHT22;4761;49.490;10.908;2023-08-08T05:58:08;22.10;54.50
9446;DHT22;4761;49.490;10.908;2023-08-08T06:00:33;22.10;54.50
9446;DHT22;4761;49.490;10.908;2023-08-08T06:03:00;22.10;54.50
9446;DHT22;4761;49.490;10.908;2023-08-08T06:05:25;22.10;54.50
9446;DHT22;4761;49.490;10.908;2023-08-08T06:07:51;22.20;54.70
9446;DHT22;4761;49.490;10.908;2023-08-08T06:10:17;22.10;54.60
9446;DHT22;4761;49.490;10.908;2023-08-08T06:12:42;22.10;54.60
9446;DHT22;4761;49.490;10.908;2023-08-08T06:15:08;22.10;54.60
9446;DHT22;4761;49.490;10.908;2023-08-08T06:17:34;22.20;54.70
9446;DHT22;4761;49.490;10.908;2023-08-08T06:19:59;22.10;54.60
9446;DHT22;4761;49.490;10.908;2023-08-08T06:22:25;22.10;54.60
9446;DHT22;4761;49.490;10.908;2023-08-08T06:24:50;22.10;54.60
9446;DHT22;4761;49.490;10.908;2023-08-08T06:27:17;22.10;54.60
9446;DHT22;4761;49.490;10.908;2023-08-08T06:29:42;22.10;54.60
9446;DHT22;4761;49.490;10.908;2023-08-08T06:32:08;22.20;54.70
9446;DHT22;4761;49.490;10.908;2023-08-08T06:34:34;22.20;54.70
9446;DHT22;4761;49.490;10.908;2023-08-08T06:36:59;22.20;54.70
9446;DHT22;4761;49.490;10.908;2023-08-08T06:39:25;22.20;54.80
9446;DHT22;4761;49.490;10.908;2023-08-08T06:41:50;22.20;54.80
9446;DHT22;4761;49.490;10.908;2023-08-08T06:44:16;22.20;54.80
9446;DHT22;4761;49.490;10.908;2023-08-08T06:46:41;22.30;54.90
9446;DHT22;4761;49.490;10.908;2023-08-08T06:49:07;22.30;55.00
9446;DHT22;4761;49.490;10.908;2023-08-08T06:51:34;22.30;55.00
9446;DHT22;4761;49.490;10.908;2023-08-08T06:54:00;22.30;55.00
9446;DHT22;4761;49.490;10.908;2023-08-08T06:56:26;22.30;55.10
9446;DHT22;4761;49.490;10.908;2023-08-08T06:58:52;22.30;55.10
9446;DHT22;4761;49.490;10.908;2023-08-08T07:01:18;22.30;55.10
9446;DHT22;4761;49.490;10.908;2023-08-08T07:03:43;22.30;55.10
9446;DHT22;4761;49.490;10.908;2023-08-08T07:06:09;22.30;55.20
9446;DHT22;4761;49.490;10.908;2023-08-08T07:08:35;22.30;55.20
9446;DHT22;4761;49.490;10.908;2023-08-08T07:11:02;22.30;55.20
9446;DHT22;4761;49.490;10.908;2023-08-08T07:13:27;22.30;55.20
9446;DHT22;4761;49.490;10.908;2023-08-08T07:15:53;22.40;55.30
9446;DHT22;4761;49.490;10.908;2023-08-08T07:18:18;22.40;55.30
9446;DHT22;4761;49.490;10.908;2023-08-08T07:20:44;22.40;55.40
9446;DHT22;4761;49.490;10.908;2023-08-08T07:23:10;22.40;55.40
9446;DHT22;4761;49.490;10.908;2023-08-08T07:25:35;22.40;55.40
9446;DHT22;4761;49.490;10.908;2023-08-08T07:28:01;22.40;55.40
9446;DHT22;4761;49.490;10.908;2023-08-08T07:30:26;22.40;55.50
9446;DHT22;4761;49.490;10.908;2023-08-08T07:32:52;22.40;55.50
9446;DHT22;4761;49.490;10.908;2023-08-08T07:35:17;22.40;55.40
9446;DHT22;4761;49.490;10.908;2023-08-08T07:37:43;22.40;55.50
9446;DHT22;4761;49.490;10.908;2023-08-08T07:40:16;22.40;55.50
9446;DHT22;4761;49.490;10.908;2023-08-08T07:42:43;22.40;55.50
9446;DHT22;4761;49.490;10.908;2023-08-08T07:45:09;22.40;55.50
9446;DHT22;4761;49.490;10.908;2023-08-08T07:47:34;22.40;55.50
9446;DHT22;4761;49.490;10.908;2023-08-08T07:50:00;22.40;55.60
9446;DHT22;4761;49.490;10.908;2023-08-08T07:52:26;22.50;55.70
9446;DHT22;4761;49.490;10.908;2023-08-08T07:54:51;22.50;55.70
9446;DHT22;4761;49.490;10.908;2023-08-08T07:57:17;22.50;55.70
9446;DHT22;4761;49.490;10.908;2023-08-08T07:59:42;22.50;55.70
9446;DHT22;4761;49.490;10.908;2023-08-08T08:02:08;22.50;55.80
9446;DHT22;4761;49.490;10.908;2023-08-08T08:04:34;22.50;55.70
9446;DHT22;4761;49.490;10.908;2023-08-08T08:07:00;22.50;56.30
9446;DHT22;4761;49.490;10.908;2023-08-08T08:09:26;22.50;55.80
9446;DHT22;4761;49.490;10.908;2023-08-08T08:11:51;22.50;55.80
9446;DHT22;4761;49.490;10.908;2023-08-08T08:14:17;22.50;55.80
9446;DHT22;4761;49.490;10.908;2023-08-08T08:16:44;22.50;55.70
9446;DHT22;4761;49.490;10.908;2023-08-08T08:19:10;22.50;55.70
9446;DHT22;4761;49.490;10.908;2023-08-08T08:21:35;22.50;55.70
9446;DHT22;4761;49.490;10.908;2023-08-08T08:24:01;22.50;55.70
9446;DHT22;4761;49.490;10.908;2023-08-08T08:26:26;22.50;55.70
9446;DHT22;4761;49.490;10.908;2023-08-08T08:28:53;22.50;55.70
9446;DHT22;4761;49.490;10.908;2023-08-08T08:31:18;22.50;55.70
9446;DHT22;4761;49.490;10.908;2023-08-08T08:33:44;22.50;55.70
9446;DHT22;4761;49.490;10.908;2023-08-08T08:36:09;22.60;55.70
9446;DHT22;4761;49.490;10.908;2023-08-08T08:38:35;22.60;55.70
9446;DHT22;4761;49.490;10.908;2023-08-08T08:41:02;22.60;55.70
9446;DHT22;4761;49.490;10.908;2023-08-08T08:43:28;22.60;55.60
9446;DHT22;4761;49.490;10.908;2023-08-08T08:45:55;22.60;55.60
9446;DHT22;4761;49.490;10.908;2023-08-08T08:48:23;22.60;55.50
9446;DHT22;4761;49.490;10.908;2023-08-08T08:50:49;22.60;55.50
9446;DHT22;4761;49.490;10.908;2023-08-08T08:53:15;22.60;55.50
9446;DHT22;4761;49.490;10.908;2023-08-08T08:55:43;22.60;55.50
9446;DHT22;4761;49.490;10.908;2023-08-08T08:58:09;22.60;55.40
9446;DHT22;4761;49.490;10.908;2023-08-08T09:00:36;22.60;55.50
9446;DHT22;4761;49.490;10.908;2023-08-08T09:03:03;22.70;55.60
9446;DHT22;4761;49.490;10.908;2023-08-08T09:05:30;22.60;55.50
9446;DHT22;4761;49.490;10.908;2023-08-08T09:07:56;22.70;55.60
9446;DHT22;4761;49.490;10.908;2023-08-08T09:10:22;22.60;55.50
9446;DHT22;4761;49.490;10.908;2023-08-08T09:12:49;22.60;55.50
9446;DHT22;4761;49.490;10.908;2023-08-08T09:15:14;22.60;55.60
9446;DHT22;4761;49.490;10.908;2023-08-08T09:17:42;22.60;55.60
9446;DHT22;4761;49.490;10.908;2023-08-08T09:20:08;22.60;55.60
9446;DHT22;4761;49.490;10.908;2023-08-08T09:22:36;22.60;55.60
9446;DHT22;4761;49.490;10.908;2023-08-08T09:25:02;22.60;55.60
9446;DHT22;4761;49.490;10.908;2023-08-08T09:27:29;22.60;55.60
9446;DHT22;4761;49.490;10.908;2023-08-08T09:29:54;22.70;55.70
9446;DHT22;4761;49.490;10.908;2023-08-08T09:32:20;22.70;55.70
9446;DHT22;4761;49.490;10.908;2023-08-08T09:34:45;22.60;55.70
9446;DHT22;4761;49.490;10.908;2023-08-08T09:37:11;22.70;55.80
9446;DHT22;4761;49.490;10.908;2023-08-08T09:39:37;22.70;55.80
9446;DHT22;4761;49.490;10.908;2023-08-08T09:42:03;22.70;55.90
9446;DHT22;4761;49.490;10.908;2023-08-08T09:44:32;22.70;55.90
9446;DHT22;4761;49.490;10.908;2023-08-08T09:47:00;22.70;55.90
9446;DHT22;4761;49.490;10.908;2023-08-08T09:49:26;22.70;56.00
9446;DHT22;4761;49.490;10.908;2023-08-08T09:51:52;22.70;55.90
9446;DHT22;4761;49.490;10.908;2023-08-08T09:54:18;22.70;56.00
9446;DHT22;4761;49.490;10.908;2023-08-08T09:56:45;22.70;56.00
9446;DHT22;4761;49.490;10.908;2023-08-08T09:59:10;22.70;56.10
9446;DHT22;4761;49.490;10.908;2023-08-08T10:01:37;22.70;56.10
9446;DHT22;4761;49.490;10.908;2023-08-08T10:04:06;22.70;56.10
9446;DHT22;4761;49.490;10.908;2023-08-08T10:06:32;22.70;56.10
9446;DHT22;4761;49.490;10.908;2023-08-08T10:08:58;22.70;56.10
9446;DHT22;4761;49.490;10.908;2023-08-08T10:11:24;22.70;56.10
9446;DHT22;4761;49.490;10.908;2023-08-08T10:13:53;22.70;56.20
9446;DHT22;4761;49.490;10.908;2023-08-08T10:16:19;22.70;56.20
9446;DHT22;4761;49.490;10.908;2023-08-08T10:18:46;22.70;56.10
9446;DHT22;4761;49.490;10.908;2023-08-08T10:21:20;22.70;56.20
9446;DHT22;4761;49.490;10.908;2023-08-08T10:23:46;22.70;56.10
9446;DHT22;4761;49.490;10.908;2023-08-08T10:26:19;22.70;56.20
9446;DHT22;4761;49.490;10.908;2023-08-08T10:28:58;22.70;56.10
9446;DHT22;4761;49.490;10.908;2023-08-08T10:31:24;22.70;56.10
9446;DHT22;4761;49.490;10.908;2023-08-08T10:34:01;22.70;56.10
9446;DHT22;4761;49.490;10.908;2023-08-08T10:36:26;22.70;56.20
9446;DHT22;4761;49.490;10.908;2023-08-08T10:38:52;22.70;56.20
9446;DHT22;4761;49.490;10.908;2023-08-08T10:41:25;22.70;56.10
9446;DHT22;4761;49.490;10.908;2023-08-08T10:43:56;22.70;56.10
9446;DHT22;4761;49.490;10.908;2023-08-08T10:46:27;22.70;56.10
9446;DHT22;4761;49.490;10.908;2023-08-08T10:48:56;22.70;56.00
9446;DHT22;4761;49.490;10.908;2023-08-08T10:51:22;22.70;56.00
9446;DHT22;4761;49.490;10.908;2023-08-08T10:53:51;22.70;56.00
9446;DHT22;4761;49.490;10.908;2023-08-08T10:56:18;22.70;55.90
9446;DHT22;4761;49.490;10.908;2023-08-08T10:58:49;22.70;55.90
9446;DHT22;4761;49.490;10.908;2023-08-08T11:01:14;22.70;56.00
9446;DHT22;4761;49.490;10.908;2023-08-08T11:03:42;22.70;56.00
9446;DHT22;4761;49.490;10.908;2023-08-08T11:06:09;22.70;56.00
9446;DHT22;4761;49.490;10.908;2023-08-08T11:08:35;22.70;55.90
9446;DHT22;4761;49.490;10.908;2023-08-08T11:11:06;22.80;55.90
9446;DHT22;4761;49.490;10.908;2023-08-08T11:13:32;22.70;55.80
9446;DHT22;4761;49.490;10.908;2023-08-08T11:15:58;22.70;55.60
9446;DHT22;4761;49.490;10.908;2023-08-08T11:18:24;22.70;55.60
9446;DHT22;4761;49.490;10.908;2023-08-08T11:20:51;22.80;55.80
9446;DHT22;4761;49.490;10.908;2023-08-08T11:23:16;22.80;55.80
9446;DHT22;4761;49.490;10.908;2023-08-08T11:25:44;22.80;55.80
9446;DHT22;4761;49.490;10.908;2023-08-08T11:28:12;22.80;55.80
9446;DHT22;4761;49.490;10.908;2023-08-08T11:30:42;22.70;55.70
9446;DHT22;4761;49.490;10.908;2023-08-08T11:33:08;22.80;55.70
9446;DHT22;4761;49.490;10.908;2023-08-08T11:35:34;22.80;55.80
9446;DHT22;4761;49.490;10.908;2023-08-08T11:38:00;22.80;55.80
9446;DHT22;4761;49.490;10.908;2023-08-08T11:40:27;22.80;55.60
9446;DHT22;4761;49.490;10.908;2023-08-08T11:42:54;22.80;55.80
9446;DHT22;4761;49.490;10.908;2023-08-08T11:45:22;22.80;55.90
9446;DHT22;4761;49.490;10.908;2023-08-08T11:47:50;22.80;55.90
9446;DHT22;4761;49.490;10.908;2023-08-08T11:50:18;22.80;56.10
9446;DHT22;4761;49.490;10.908;2023-08-08T11:52:45;22.80;56.70
9446;DHT22;4761;49.490;10.908;2023-08-08T11:55:12;22.80;56.00
9446;DHT22;4761;49.490;10.908;2023-08-08T11:57:39;22.80;56.10
9446;DHT22;4761;49.490;10.908;2023-08-08T12:00:10;22.80;56.00
9446;DHT22;4761;49.490;10.908;2023-08-08T12:02:39;22.80;56.00
9446;DHT22;4761;49.490;10.908;2023-08-08T12:05:12;22.80;55.90
9446;DHT22;4761;49.490;10.908;2023-08-08T12:07:38;22.80;55.80
9446;DHT22;4761;49.490;10.908;2023-08-08T12:10:15;22.80;55.80
9446;DHT22;4761;49.490;10.908;2023-08-08T12:12:41;22.80;55.90
9446;DHT22;4761;49.490;10.908;2023-08-08T12:15:08;22.80;55.80
9446;DHT22;4761;49.490;10.908;2023-08-08T12:17:36;22.80;55.80
9446;DHT22;4761;49.490;10.908;2023-08-08T12:20:06;22.80;55.90
9446;DHT22;4761;49.490;10.908;2023-08-08T12:22:33;22.80;55.80
9446;DHT22;4761;49.490;10.908;2023-08-08T12:24:59;22.80;55.90
9446;DHT22;4761;49.490;10.908;2023-08-08T12:27:24;22.80;55.80
9446;DHT22;4761;49.490;10.908;2023-08-08T12:29:50;22.80;55.80
9446;DHT22;4761;49.490;10.908;2023-08-08T12:32:15;22.80;55.80
9446;DHT22;4761;49.490;10.908;2023-08-08T12:34:41;22.90;55.80
9446;DHT22;4761;49.490;10.908;2023-08-08T12:37:06;22.90;55.90
9446;DHT22;4761;49.490;10.908;2023-08-08T12:39:32;22.90;55.90
9446;DHT22;4761;49.490;10.908;2023-08-08T12:41:58;22.90;56.00
9446;DHT22;4761;49.490;10.908;2023-08-08T12:44:23;22.90;55.90
9446;DHT22;4761;49.490;10.908;2023-08-08T12:46:49;22.90;55.80
9446;DHT22;4761;49.490;10.908;2023-08-08T12:49:14;22.90;55.80
9446;DHT22;4761;49.490;10.908;2023-08-08T12:51:40;22.80;55.80
9446;DHT22;4761;49.490;10.908;2023-08-08T12:54:06;22.90;56.10
9446;DHT22;4761;49.490;10.908;2023-08-08T12:56:31;22.90;56.10
9446;DHT22;4761;49.490;10.908;2023-08-08T12:58:57;22.90;56.20
9446;DHT22;4761;49.490;10.908;2023-08-08T13:01:22;22.90;56.20
9446;DHT22;4761;49.490;10.908;2023-08-08T13:03:49;22.90;56.10
9446;DHT22;4761;49.490;10.908;2023-08-08T13:06:15;22.90;56.30
9446;DHT22;4761;49.490;10.908;2023-08-08T13:08:40;22.90;56.30
9446;DHT22;4761;49.490;10.908;2023-08-08T13:11:06;22.90;56.30
9446;DHT22;4761;49.490;10.908;2023-08-08T13:13:32;22.90;56.30
9446;DHT22;4761;49.490;10.908;2023-08-08T13:15:58;22.90;56.20
9446;DHT22;4761;49.490;10.908;2023-08-08T13:18:23;22.90;56.00
9446;DHT22;4761;49.490;10.908;2023-08-08T13:20:49;22.90;55.90
9446;DHT22;4761;49.490;10.908;2023-08-08T13:23:14;22.90;55.70
9446;DHT22;4761;49.490;10.908;2023-08-08T13:25:40;22.90;55.70
9446;DHT22;4761;49.490;10.908;2023-08-08T13:28:06;22.90;55.60
9446;DHT22;4761;49.490;10.908;2023-08-08T13:30:32;22.90;55.80
9446;DHT22;4761;49.490;10.908;2023-08-08T13:32:58;22.90;55.80
9446;DHT22;4761;49.490;10.908;2023-08-08T13:35:24;22.90;55.90
9446;DHT22;4761;49.490;10.908;2023-08-08T13:37:49;22.90;55.90
9446;DHT22;4761;49.490;10.908;2023-08-08T13:40:17;22.90;55.90
9446;DHT22;4761;49.490;10.908;2023-08-08T13:42:43;22.90;55.90
9446;DHT22;4761;49.490;10.908;2023-08-08T13:45:17;22.90;55.90
9446;DHT22;4761;49.490;10.908;2023-08-08T13:47:42;22.90;55.90
9446;DHT22;4761;49.490;10.908;2023-08-08T13:50:08;22.90;55.80
9446;DHT22;4761;49.490;10.908;2023-08-08T13:52:33;22.90;55.80
9446;DHT22;4761;49.490;10.908;2023-08-08T13:54:59;22.90;55.90
9446;DHT22;4761;49.490;10.908;2023-08-08T13:57:25;22.90;55.80
9446;DHT22;4761;49.490;10.908;2023-08-08T13:59:50;22.90;55.70
9446;DHT22;4761;49.490;10.908;2023-08-08T14:02:16;22.90;55.60
9446;DHT22;4761;49.490;10.908;2023-08-08T14:04:44;22.90;55.80
9446;DHT22;4761;49.490;10.908;2023-08-08T14:07:10;22.90;55.70
9446;DHT22;4761;49.490;10.908;2023-08-08T14:09:35;22.90;55.70
9446;DHT22;4761;49.490;10.908;2023-08-08T14:12:01;22.90;55.80
9446;DHT22;4761;49.490;10.908;2023-08-08T14:14:26;22.90;55.90
9446;DHT22;4761;49.490;10.908;2023-08-08T14:16:52;22.90;55.90
9446;DHT22;4761;49.490;10.908;2023-08-08T14:19:17;22.90;55.90
9446;DHT22;4761;49.490;10.908;2023-08-08T14:21:44;22.90;56.10
9446;DHT22;4761;49.490;10.908;2023-08-08T14:24:10;22.90;56.00
9446;DHT22;4761;49.490;10.908;2023-08-08T14:26:35;23.00;56.00
9446;DHT22;4761;49.490;10.908;2023-08-08T14:29:01;23.00;56.00
9446;DHT22;4761;49.490;10.908;2023-08-08T14:31:27;22.90;55.80
9446;DHT22;4761;49.490;10.908;2023-08-08T14:33:52;22.90;55.80
9446;DHT22;4761;49.490;10.908;2023-08-08T14:36:18;22.90;55.80
9446;DHT22;4761;49.490;10.908;2023-08-08T14:38:43;22.90;55.60
9446;DHT22;4761;49.490;10.908;2023-08-08T14:41:09;22.90;55.70
9446;DHT22;4761;49.490;10.908;2023-08-08T14:43:34;22.90;55.70
9446;DHT22;4761;49.490;10.908;2023-08-08T14:46:00;22.90;55.70
9446;DHT22;4761;49.490;10.908;2023-08-08T14:48:25;22.90;55.60
9446;DHT22;4761;49.490;10.908;2023-08-08T14:50:51;22.90;55.70
9446;DHT22;4761;49.490;10.908;2023-08-08T14:53:16;22.90;55.60
9446;DHT22;4761;49.490;10.908;2023-08-08T14:55:42;22.90;55.70
9446;DHT22;4761;49.490;10.908;2023-08-08T14:58:07;22.90;55.60
9446;DHT22;4761;49.490;10.908;2023-08-08T15:00:33;22.90;55.50
9446;DHT22;4761;49.490;10.908;2023-08-08T15:02:59;22.90;55.50
9446;DHT22;4761;49.490;10.908;2023-08-08T15:05:24;22.90;55.50
9446;DHT22;4761;49.490;10.908;2023-08-08T15:07:50;22.90;55.40
9446;DHT22;4761;49.490;10.908;2023-08-08T15:10:15;22.90;55.40
9446;DHT22;4761;49.490;10.908;2023-08-08T15:12:41;22.80;55.20
9446;DHT22;4761;49.490;10.908;2023-08-08T15:15:07;22.90;55.30
9446;DHT22;4761;49.490;10.908;2023-08-08T15:17:33;22.90;55.40
9446;DHT22;4761;49.490;10.908;2023-08-08T15:20:00;22.90;55.20
9446;DHT22;4761;49.490;10.908;2023-08-08T15:22:26;22.90;55.10
9446;DHT22;4761;49.490;10.908;2023-08-08T15:24:51;22.90;55.10
9446;DHT22;4761;49.490;10.908;2023-08-08T15:27:17;22.80;55.00
9446;DHT22;4761;49.490;10.908;2023-08-08T15:29:42;22.80;54.90
9446;DHT22;4761;49.490;10.908;2023-08-08T15:32:08;22.90;55.00
9446;DHT22;4761;49.490;10.908;2023-08-08T15:34:33;22.90;55.00
9446;DHT22;4761;49.490;10.908;2023-08-08T15:36:59;22.90;55.00